Time;durP1;ratioP1;P1;durP2;ratioP2;P2;SDS_P1;SDS_P2;PMS_P1;PMS_P2;Temp;Humidity;BMP_temperature;BMP_pressure;BME280_temperature;BME280_humidity;BME280_pressure;Samples;Min_cycle;Max_cycle;Signal;HPM_P1;HPM_P2
2023/03/28 00:00:58;;;;;;;3.50;2.20;;;;;;;1.36;100.00;98985.66;5071960;28;20227;-78
2023/03/28 00:03:26;;;;;;;2.23;1.83;;;;;;;1.37;100.00;98985.63;5071833;28;20219;-78
2023/03/28 00:05:56;;;;;;;5.17;2.13;;;;;;;1.35;100.00;98984.78;5072075;28;20235;-78
2023/03/28 00:08:23;;;;;;;2.90;1.70;;;;;;;1.39;100.00;98986.44;5071748;28;20232;-78
2023/03/28 00:10:49;;;;;;;4.80;2.23;;;;;;;1.35;100.00;98990.00;5071634;28;20209;-78
2023/03/28 00:13:18;;;;;;;4.03;2.13;;;;;;;1.35;100.00;98994.38;5071810;28;20214;-78
2023/03/28 00:15:47;;;;;;;1.90;1.67;;;;;;;1.26;100.00;99003.19;5071796;28;20209;-78
2023/03/28 00:18:14;;;;;;;3.10;2.20;;;;;;;1.27;100.00;99002.31;5071557;28;20232;-78
2023/03/28 00:20:42;;;;;;;3.97;2.37;;;;;;;1.22;100.00;99008.50;5071293;28;20678;-78
2023/03/28 00:23:10;;;;;;;5.63;2.10;;;;;;;1.21;100.00;99010.22;5071773;28;20203;-78
2023/03/28 00:25:38;;;;;;;4.63;2.00;;;;;;;1.25;100.00;99008.44;5071437;28;20356;-78
2023/03/28 00:28:05;;;;;;;4.20;1.90;;;;;;;1.28;100.00;99019.66;5071417;28;20235;-78
2023/03/28 00:30:32;;;;;;;3.67;1.83;;;;;;;1.28;100.00;99011.84;5071172;28;20214;-78
2023/03/28 00:33:02;;;;;;;4.03;2.10;;;;;;;1.24;100.00;99007.56;5071305;28;20208;-78
2023/03/28 00:35:28;;;;;;;2.43;1.97;;;;;;;1.36;100.00;99009.09;5071779;28;20584;-78
2023/03/28 00:37:56;;;;;;;2.73;1.80;;;;;;;1.27;100.00;99023.16;5071202;28;20631;-78
2023/03/28 00:40:24;;;;;;;4.30;2.57;;;;;;;1.27;100.00;99022.28;5071262;28;20580;-78
2023/03/28 00:42:51;;;;;;;6.33;2.30;;;;;;;1.21;100.00;99022.38;5071416;28;20256;-78
2023/03/28 00:45:20;;;;;;;4.17;2.03;;;;;;;1.14;100.00;99026.84;5071014;28;20247;-78
2023/03/28 00:47:51;;;;;;;2.70;1.90;;;;;;;1.12;100.00;99027.78;5070965;28;20431;-78
2023/03/28 00:50:23;;;;;;;4.27;1.90;;;;;;;1.05;100.00;99037.41;5070870;28;20669;-78
2023/03/28 00:52:53;;;;;;;2.87;2.10;;;;;;;1.04;100.00;99035.72;5071165;28;20224;-78
2023/03/28 00:55:25;;;;;;;4.73;2.17;;;;;;;1.01;100.00;99030.56;5071110;28;20209;-78
2023/03/28 00:57:53;;;;;;;2.63;1.80;;;;;;;0.99;100.00;99032.31;5070981;28;20765;-78
2023/03/28 01:00:20;;;;;;;4.23;2.20;;;;;;;0.98;100.00;99035.81;5070389;28;20218;-78
2023/03/28 01:02:51;;;;;;;5.90;2.10;;;;;;;0.91;100.00;99036.81;5071218;28;20208;-78
2023/03/28 01:05:23;;;;;;;5.73;1.90;;;;;;;0.88;100.00;99039.47;5070851;28;20281;-78
2023/03/28 01:07:54;;;;;;;4.23;2.03;;;;;;;0.92;100.00;99043.72;5070974;28;20742;-78
2023/03/28 01:10:22;;;;;;;2.90;2.20;;;;;;;0.91;100.00;99044.59;5070701;28;20296;-78
2023/03/28 01:12:49;;;;;;;4.20;1.93;;;;;;;0.86;100.00;99040.38;5070556;28;20638;-78
2023/03/28 01:15:17;;;;;;;4.13;2.23;;;;;;;0.84;100.00;99037.78;5071003;28;20233;-78
2023/03/28 01:17:46;;;;;;;4.57;1.97;;;;;;;0.86;100.00;99041.22;5070861;28;20224;-78
2023/03/28 01:20:45;;;;;;;2.20;2.00;;;;;;;0.85;100.00;99039.50;5070700;28;20205;-78
2023/03/28 01:23:39;;;;;;;2.13;1.80;;;;;;;0.88;100.00;99038.59;5064878;28;20209;-78
2023/03/28 01:26:45;;;;;;;2.53;1.90;;;;;;;0.98;100.00;99048.81;5070955;28;20205;-78
2023/03/28 01:29:37;;;;;;;4.60;2.23;;;;;;;0.96;100.00;99048.00;5066840;28;20709;-78
2023/03/28 01:32:29;;;;;;;4.67;2.10;;;;;;;0.94;100.00;99047.19;5070912;28;20213;-78
2023/03/28 01:35:31;;;;;;;6.13;2.47;;;;;;;0.88;100.00;99054.22;5070817;28;20203;-78
2023/03/28 01:38:07;;;;;;;3.97;2.47;;;;;;;0.83;100.00;99056.91;5056908;28;20741;-78
2023/03/28 01:40:44;;;;;;;3.43;2.30;;;;;;;0.77;100.00;99061.31;5070464;28;20584;-78
2023/03/28 01:43:26;;;;;;;4.90;2.57;;;;;;;0.79;100.00;99064.75;5070782;28;20325;-78
2023/03/28 01:45:57;;;;;;;3.37;2.53;;;;;;;0.77;100.00;99062.19;5070503;28;20238;-78
2023/03/28 01:48:36;;;;;;;3.70;2.20;;;;;;;0.73;100.00;99065.72;5070344;28;20239;-78
2023/03/28 01:51:10;;;;;;;3.43;2.27;;;;;;;0.76;100.00;99060.50;5070441;28;20203;-78
2023/03/28 01:53:43;;;;;;;4.77;2.40;;;;;;;0.75;100.00;99063.94;5070744;28;20532;-78
2023/03/28 01:56:20;;;;;;;5.10;3.00;;;;;;;0.76;100.00;99065.69;5070620;28;20215;-78
2023/03/28 01:58:54;;;;;;;8.00;3.33;;;;;;;0.77;100.00;99062.19;5070455;28;20289;-78
2023/03/28 02:01:25;;;;;;;3.47;2.77;;;;;;;0.82;100.00;99067.31;5070233;28;20209;-78
2023/03/28 02:03:55;;;;;;;5.03;3.10;;;;;;;0.84;100.00;99063.81;5070502;28;20689;-78
2023/03/28 02:06:23;;;;;;;5.50;2.87;;;;;;;0.82;100.00;99059.50;5070524;28;20670;-78
2023/03/28 02:08:53;;;;;;;4.80;2.93;;;;;;;0.78;100.00;99066.50;5070274;28;20322;-78
2023/03/28 02:11:20;;;;;;;4.20;2.83;;;;;;;0.78;100.00;99073.44;5070216;28;20219;-78
2023/03/28 02:13:50;;;;;;;4.73;2.67;;;;;;;0.81;100.00;99076.84;5070759;28;20206;-78
2023/03/28 02:16:21;;;;;;;3.83;2.90;;;;;;;0.77;100.00;99077.81;5070289;28;20205;-78
2023/03/28 02:18:53;;;;;;;4.53;3.00;;;;;;;0.76;100.00;99076.09;5073758;28;20227;-78
2023/03/28 02:21:24;;;;;;;7.47;3.07;;;;;;;0.75;100.00;99073.50;5073647;28;20210;-78
2023/03/28 02:23:53;;;;;;;7.00;3.00;;;;;;;0.74;100.00;99077.84;5073778;28;20671;-78
2023/03/28 02:26:22;;;;;;;5.80;3.00;;;;;;;0.71;100.00;99077.91;5073897;28;20211;-78
2023/03/28 02:28:52;;;;;;;6.83;3.10;;;;;;;0.72;100.00;99060.53;5073604;28;20234;-78
2023/03/28 02:31:20;;;;;;;3.90;3.00;;;;;;;0.74;100.00;99072.63;5073442;28;20208;-78
2023/03/28 02:33:48;;;;;;;6.03;3.03;;;;;;;0.71;100.00;99072.69;5074215;28;20259;-78
2023/03/28 02:36:29;;;;;;;5.17;3.50;;;;;;;0.73;100.00;99070.94;5073686;28;20206;-78
2023/03/28 02:39:17;;;;;;;5.23;3.27;;;;;;;0.65;100.00;99067.59;5073456;28;20240;-78
2023/03/28 02:41:57;;;;;;;4.83;2.90;;;;;;;0.65;100.00;99072.78;5073563;28;20203;-78
2023/03/28 02:44:40;;;;;;;6.20;3.37;;;;;;;0.60;100.00;99069.41;5073381;28;20230;-78
2023/03/28 02:47:16;;;;;;;4.40;2.80;;;;;;;0.61;100.00;99065.91;5073617;28;20218;-78
2023/03/28 02:49:54;;;;;;;5.23;2.80;;;;;;;0.53;100.00;99067.78;5073306;28;20209;-78
2023/03/28 02:52:33;;;;;;;5.80;2.97;;;;;;;0.51;100.00;99074.72;5073410;28;20207;-78
2023/03/28 02:55:11;;;;;;;4.30;2.90;;;;;;;0.50;100.00;99073.00;5073358;28;20281;-78
2023/03/28 02:57:42;;;;;;;3.93;3.23;;;;;;;0.51;100.00;99073.88;5073457;28;20228;-78
2023/03/28 03:00:11;;;;;;;7.00;3.37;;;;;;;0.49;100.00;99076.50;5073006;28;20232;-78
2023/03/28 03:02:38;;;;;;;5.70;3.03;;;;;;;0.49;100.00;99073.88;5073179;28;20242;-78
2023/03/28 03:05:06;;;;;;;4.80;2.97;;;;;;;0.43;100.00;99084.38;5073183;28;20241;-78
2023/03/28 03:07:32;;;;;;;4.47;2.97;;;;;;;0.45;100.00;99074.81;5072823;28;20233;-78
2023/03/28 03:10:00;;;;;;;3.40;3.00;;;;;;;0.41;100.00;99072.28;5073038;28;20215;-78
2023/03/28 03:12:27;;;;;;;7.13;3.27;;;;;;;0.37;100.00;99074.06;5073064;28;20213;-78
2023/03/28 03:14:53;;;;;;;5.27;2.97;;;;;;;0.35;100.00;99078.44;5073048;28;20223;-77
2023/03/28 03:17:20;;;;;;;4.60;2.87;;;;;;;0.31;100.00;99068.94;5072762;28;20619;-78
2023/03/28 03:19:46;;;;;;;5.47;2.90;;;;;;;0.26;100.00;99073.34;5071776;28;20214;-78
2023/03/28 03:22:13;;;;;;;3.90;3.40;;;;;;;0.28;100.00;99074.22;5072675;28;20209;-78
2023/03/28 03:24:39;;;;;;;6.23;3.33;;;;;;;0.28;100.00;99079.41;5072561;28;20231;-78
2023/03/28 03:27:07;;;;;;;4.23;3.40;;;;;;;0.21;100.00;99075.19;5072543;28;20204;-78
2023/03/28 03:29:33;;;;;;;4.43;3.43;;;;;;;0.19;100.00;99071.72;5072132;28;20204;-78
2023/03/28 03:32:00;;;;;;;5.30;3.47;;;;;;;0.16;100.00;99076.97;5072507;28;20218;-78
2023/03/28 03:34:26;;;;;;;6.47;3.60;;;;;;;0.14;100.00;99076.13;5072388;28;20203;-78
2023/03/28 03:36:53;;;;;;;5.60;3.13;;;;;;;0.15;100.00;99072.66;5072555;28;20212;-77
2023/03/28 03:39:20;;;;;;;3.97;3.20;;;;;;;0.08;100.00;99073.59;5071856;28;20211;-78
2023/03/28 03:41:47;;;;;;;5.47;3.43;;;;;;;0.01;100.00;99078.91;5072399;28;20207;-78
2023/03/28 03:44:15;;;;;;;3.17;2.63;;;;;;;-0.03;100.00;99072.03;5072303;28;20206;-78
2023/03/28 03:46:41;;;;;;;6.47;3.27;;;;;;;-0.07;100.00;99073.81;5072193;28;20227;-77
2023/03/28 03:49:09;;;;;;;4.90;3.07;;;;;;;-0.06;100.00;99072.91;5071692;28;20238;-80
2023/03/28 03:51:35;;;;;;;5.23;3.50;;;;;;;-0.08;100.00;99077.28;5072411;28;20207;-79
2023/03/28 03:54:02;;;;;;;5.73;3.50;;;;;;;-0.07;100.00;99071.19;5070915;28;20203;-78
2023/03/28 03:56:28;;;;;;;6.33;3.37;;;;;;;-0.08;100.00;99072.09;5071836;28;20211;-77
2023/03/28 03:58:55;;;;;;;7.10;3.60;;;;;;;-0.11;100.00;99074.72;5071716;28;20233;-79
2023/03/28 04:01:24;;;;;;;7.47;3.37;;;;;;;-0.16;100.00;99067.88;5071268;28;20212;-78
2023/03/28 04:03:51;;;;;;;4.70;3.13;;;;;;;-0.13;100.00;99079.06;5071922;28;20205;-78
2023/03/28 04:06:18;;;;;;;5.53;3.67;;;;;;;-0.14;100.00;99075.66;5071703;28;20223;-78
2023/03/28 04:08:45;;;;;;;5.00;3.07;;;;;;;-0.19;100.00;99073.06;5071723;28;20223;-78
2023/03/28 04:11:11;;;;;;;3.40;3.03;;;;;;;-0.20;100.00;99075.72;5071403;28;20214;-78
2023/03/28 04:13:38;;;;;;;6.00;3.30;;;;;;;-0.22;100.00;99071.38;5071515;28;20212;-78
2023/03/28 04:16:05;;;;;;;5.87;2.90;;;;;;;-0.22;100.00;99068.78;5071363;28;20212;-78
2023/03/28 04:18:34;;;;;;;3.47;2.70;;;;;;;-0.25;100.00;99078.34;5071622;28;20328;-78
2023/03/28 04:21:02;;;;;;;5.00;3.10;;;;;;;-0.30;100.00;99089.69;5071179;28;20220;-78
2023/03/28 04:23:29;;;;;;;6.10;3.40;;;;;;;-0.36;100.00;99079.34;5071457;28;20205;-87
2023/03/28 04:25:57;;;;;;;6.17;3.80;;;;;;;-0.31;100.00;99087.97;5071374;28;20230;-78
2023/03/28 04:28:26;;;;;;;5.47;3.03;;;;;;;-0.33;100.00;99089.72;5071315;28;20285;-78
2023/03/28 04:30:56;;;;;;;5.53;3.17;;;;;;;-0.33;100.00;99094.91;5071015;28;20310;-78
2023/03/28 04:33:24;;;;;;;5.20;3.13;;;;;;;-0.36;100.00;99094.94;5071793;28;20209;-78
2023/03/28 04:35:56;;;;;;;5.07;3.27;;;;;;;-0.43;100.00;99101.91;5071444;28;20261;-78
2023/03/28 04:38:24;;;;;;;4.10;2.93;;;;;;;-0.44;100.00;99102.81;5071088;28;20742;-78
2023/03/28 04:40:52;;;;;;;4.00;3.10;;;;;;;-0.50;100.00;99108.06;5070510;28;20207;-78
2023/03/28 04:43:19;;;;;;;4.23;2.80;;;;;;;-0.51;100.00;99110.69;5071118;28;20308;-78
2023/03/28 04:45:45;;;;;;;5.10;3.20;;;;;;;-0.52;100.00;99114.13;5071047;28;20242;-78
2023/03/28 04:48:12;;;;;;;8.10;4.00;;;;;;;-0.53;100.00;99118.50;5071311;28;20232;-78
2023/03/28 04:50:38;;;;;;;5.07;3.00;;;;;;;-0.47;100.00;99121.03;5071007;28;20211;-79
2023/03/28 04:53:06;;;;;;;5.73;3.00;;;;;;;-0.47;100.00;99123.63;5071032;28;20218;-78
2023/03/28 04:55:32;;;;;;;9.27;4.00;;;;;;;-0.50;100.00;99126.22;5071039;28;20207;-79
2023/03/28 04:57:59;;;;;;;5.40;3.30;;;;;;;-0.42;100.00;99126.16;5071127;28;20227;-79
2023/03/28 05:00:26;;;;;;;6.57;3.80;;;;;;;-0.45;100.00;99126.22;5070918;28;20216;-79
2023/03/28 05:02:54;;;;;;;5.17;3.07;;;;;;;-0.47;100.00;99127.94;5071141;28;20211;-78
2023/03/28 05:05:20;;;;;;;5.33;3.57;;;;;;;-0.49;100.00;99130.53;5070731;28;20223;-78
2023/03/28 05:07:47;;;;;;;5.87;3.30;;;;;;;-0.51;100.00;99132.31;5071050;28;20229;-78
2023/03/28 05:10:15;;;;;;;5.60;3.23;;;;;;;-0.43;100.00;99132.25;5070731;28;20211;-78
2023/03/28 05:12:41;;;;;;;4.77;3.40;;;;;;;-0.43;100.00;99137.44;5071160;28;20834;-78
2023/03/28 05:15:08;;;;;;;5.90;3.33;;;;;;;-0.45;100.00;99136.59;5070973;28;20239;-78
2023/03/28 05:17:35;;;;;;;3.93;3.10;;;;;;;-0.34;100.00;99129.53;5071013;28;20227;-81
2023/03/28 05:20:06;;;;;;;6.77;3.60;;;;;;;-0.43;100.00;99129.66;5070704;28;20224;-81
2023/03/28 05:22:33;;;;;;;5.00;3.27;;;;;;;-0.41;100.00;99140.88;5070941;28;20211;-81
2023/03/28 05:24:59;;;;;;;4.57;3.03;;;;;;;-0.43;100.00;99143.47;5070626;28;20207;-79
2023/03/28 05:27:27;;;;;;;4.77;3.13;;;;;;;-0.49;100.00;99146.13;5070731;28;20696;-80
2023/03/28 05:29:54;;;;;;;3.87;3.20;;;;;;;-0.52;100.00;99143.56;5070691;28;20208;-80
2023/03/28 05:32:21;;;;;;;5.10;3.33;;;;;;;-0.45;100.00;99152.19;5070701;28;20219;-80
2023/03/28 05:34:47;;;;;;;8.33;3.83;;;;;;;-0.41;100.00;99153.84;5070806;28;20557;-81
2023/03/28 05:37:14;;;;;;;5.40;3.40;;;;;;;-0.31;100.00;99158.94;5084623;22;20235;-76
2023/03/28 05:39:40;;;;;;;9.27;3.73;;;;;;;-0.28;100.00;99164.94;5046088;28;20225;-76
2023/03/28 05:42:07;;;;;;;6.40;3.57;;;;;;;-0.34;100.00;99161.56;5050065;28;20212;-76
2023/03/28 05:44:35;;;;;;;6.57;4.03;;;;;;;-0.30;100.00;99167.59;5050229;28;20214;-77
2023/03/28 05:47:02;;;;;;;7.53;3.57;;;;;;;-0.29;100.00;99169.31;5041426;28;20232;-77
2023/03/28 05:49:28;;;;;;;7.47;3.97;;;;;;;-0.17;100.00;99174.38;5028805;28;20206;-75
2023/03/28 05:51:54;;;;;;;8.63;3.67;;;;;;;-0.13;100.00;99168.28;5030651;28;20209;-76
2023/03/28 05:54:21;;;;;;;7.03;3.73;;;;;;;-0.03;100.00;99169.03;5034318;28;20682;-76
2023/03/28 05:56:47;;;;;;;7.57;3.87;;;;;;;0.02;100.00;99172.41;5031386;28;20210;-79
2023/03/28 05:59:14;;;;;;;7.33;3.80;;;;;;;0.15;100.00;99176.63;5035081;28;20238;-77
2023/03/28 06:01:44;;;;;;;7.90;3.97;;;;;;;0.23;100.00;99181.72;5035840;28;20229;-78
2023/03/28 06:04:10;;;;;;;9.37;4.13;;;;;;;0.24;100.00;99176.50;5035926;28;20598;-77
2023/03/28 06:06:37;;;;;;;8.73;4.23;;;;;;;0.31;100.00;99172.09;5034614;28;20232;-77
2023/03/28 06:09:04;;;;;;;8.53;4.63;;;;;;;0.40;100.00;99179.78;5034685;28;20234;-77
2023/03/28 06:11:31;;;;;;;8.10;4.33;;;;;;;0.48;100.00;99178.81;5034408;28;20566;-80
2023/03/28 06:13:57;;;;;;;7.10;3.97;;;;;;;0.61;100.00;99180.34;5033552;28;20584;-79
2023/03/28 06:16:24;;;;;;;12.10;5.13;;;;;;;0.66;100.00;99178.56;5033152;28;20239;-78
2023/03/28 06:18:53;;;;;;;5.93;4.20;;;;;;;0.78;100.00;99183.59;5033673;28;20238;-78
2023/03/28 06:21:20;;;;;;;8.20;4.43;;;;;;;0.89;100.00;99192.13;5033112;28;20210;-79
2023/03/28 06:23:46;;;;;;;9.53;4.60;;;;;;;0.98;100.00;99191.97;5031705;28;20701;-78
2023/03/28 06:26:13;;;;;;;7.50;5.00;;;;;;;1.05;100.00;99188.38;5031374;28;20464;-78
2023/03/28 06:28:39;;;;;;;7.63;4.63;;;;;;;1.17;100.00;99201.22;5034102;28;20225;-79
2023/03/28 06:31:06;;;;;;;7.90;4.07;;;;;;;1.29;100.00;99195.00;5033900;28;20209;-80
2023/03/28 06:33:33;;;;;;;7.68;4.70;;;;;;;1.36;100.00;99184.44;5032989;28;20437;-77
2023/03/28 06:36:00;;;;;;;7.30;4.10;;;;;;;1.40;100.00;99186.09;5034111;28;20200;-78
2023/03/28 06:38:27;;;;;;;3.97;3.40;;;;;;;1.46;100.00;99190.34;5031763;28;20343;-78
2023/03/28 06:40:54;;;;;;;6.30;3.67;;;;;;;1.55;100.00;99196.28;5032038;28;20583;-77
2023/03/28 06:43:20;;;;;;;9.83;3.17;;;;;;;1.65;100.00;99192.63;5033865;28;20204;-78
2023/03/28 06:45:47;;;;;;;5.00;2.97;;;;;;;1.83;100.00;99197.50;5032935;28;20239;-77
2023/03/28 06:48:13;;;;;;;5.90;3.07;;;;;;;1.94;100.00;99205.13;5031008;28;20229;-77
2023/03/28 06:50:40;;;;;;;4.43;3.07;;;;;;;2.01;100.00;99196.31;5033201;28;20213;-77
2023/03/28 06:53:07;;;;;;;6.10;2.77;;;;;;;2.11;100.00;99192.66;5033643;28;20219;-76
2023/03/28 06:55:35;;;;;;;4.87;2.97;;;;;;;2.23;100.00;99197.63;5031258;28;20210;-76
2023/03/28 06:58:01;;;;;;;5.00;2.57;;;;;;;2.37;98.41;99191.25;5032370;28;20233;-78
2023/03/28 07:00:28;;;;;;;6.33;2.60;;;;;;;2.56;94.68;99190.00;5033209;28;20213;-77
2023/03/28 07:02:54;;;;;;;4.47;2.33;;;;;;;2.62;93.24;99184.66;5032941;28;20590;-78
2023/03/28 07:05:21;;;;;;;3.20;2.53;;;;;;;2.64;93.07;99195.91;5033446;28;20300;-78
2023/03/28 07:07:48;;;;;;;7.93;2.50;;;;;;;2.70;92.12;99185.34;5033436;28;20598;-77
2023/03/28 07:10:16;;;;;;;7.17;2.40;;;;;;;2.79;90.19;99185.16;5033228;28;20626;-77
2023/03/28 07:12:42;;;;;;;5.33;2.50;;;;;;;2.97;86.61;99174.31;5031953;28;20212;-78
2023/03/28 07:15:09;;;;;;;6.67;2.70;;;;;;;3.02;86.12;99177.69;5031736;28;20216;-77
2023/03/28 07:17:36;;;;;;;6.17;2.53;;;;;;;3.10;85.11;99180.09;5032357;28;20254;-77
2023/03/28 07:20:03;;;;;;;7.90;3.13;;;;;;;3.12;86.26;99192.22;5032256;28;20218;-78
2023/03/28 07:22:30;;;;;;;5.63;2.53;;;;;;;3.23;84.50;99186.75;5033119;28;20583;-78
2023/03/28 07:24:56;;;;;;;5.30;2.23;;;;;;;3.37;83.07;99184.69;5033114;28;20301;-77
2023/03/28 07:27:24;;;;;;;5.47;2.67;;;;;;;3.43;82.15;99184.53;5033039;28;20246;-78
2023/03/28 07:29:51;;;;;;;6.47;2.73;;;;;;;3.38;80.26;99174.19;5032624;28;20213;-77
2023/03/28 07:32:17;;;;;;;7.17;2.83;;;;;;;3.37;81.71;99190.75;5032834;28;20211;-77
2023/03/28 07:34:44;;;;;;;5.40;2.38;;;;;;;3.53;79.40;99181.66;5031867;28;20448;-73
2023/03/28 07:37:10;;;;;;;6.53;2.83;;;;;;;3.50;79.00;99171.28;5032805;28;20234;-77
2023/03/28 07:39:38;;;;;;;4.30;2.30;;;;;;;3.60;78.52;99174.53;5032517;28;20229;-77
2023/03/28 07:42:06;;;;;;;5.10;2.50;;;;;;;3.62;78.91;99177.94;5032776;28;20237;-76
2023/03/28 07:44:34;;;;;;;6.87;2.77;;;;;;;3.63;78.48;99172.69;5032790;28;20225;-76
2023/03/28 07:47:01;;;;;;;8.30;2.50;;;;;;;3.66;78.17;99185.66;5032668;28;20234;-76
2023/03/28 07:49:27;;;;;;;4.40;2.63;;;;;;;3.71;79.46;99196.00;5032479;28;20229;-77
2023/03/28 07:51:54;;;;;;;4.97;2.20;;;;;;;3.82;80.78;99204.44;5032449;28;20676;-77
2023/03/28 07:54:21;;;;;;;4.57;2.50;;;;;;;3.92;80.00;99198.09;5029541;28;20222;-77
2023/03/28 07:56:48;;;;;;;4.37;2.10;;;;;;;3.99;80.48;99192.66;5030404;28;20208;-77
2023/03/28 07:59:14;;;;;;;4.30;2.60;;;;;;;4.15;76.37;99190.50;5032173;28;20235;-77
2023/03/28 08:01:44;;;;;;;5.97;2.40;;;;;;;4.08;75.02;99187.19;5031735;28;20677;-77
2023/03/28 08:04:11;;;;;;;4.30;2.50;;;;;;;4.08;74.68;99189.78;5029742;28;20218;-76
2023/03/28 08:06:39;;;;;;;4.67;2.77;;;;;;;4.10;73.89;99190.59;5031893;28;20238;-77
2023/03/28 08:09:07;;;;;;;5.30;2.43;;;;;;;4.10;74.25;99190.59;5032199;28;20255;-77
2023/03/28 08:11:34;;;;;;;4.37;2.50;;;;;;;4.13;75.43;99206.22;5032331;28;20234;-77
2023/03/28 08:14:01;;;;;;;7.73;3.40;;;;;;;4.27;76.41;99204.09;5032476;28;20212;-77
2023/03/28 08:16:28;;;;;;;8.20;2.73;;;;;;;4.32;76.01;99210.06;5031726;28;20675;-76
2023/03/28 08:18:55;;;;;;;6.50;2.50;;;;;;;4.45;75.45;99208.81;5032214;28;20237;-76
2023/03/28 08:21:26;;;;;;;7.37;2.50;;;;;;;4.53;73.44;99206.00;5031892;28;20210;-77
2023/03/28 08:23:53;;;;;;;4.80;2.50;;;;;;;4.59;73.34;99200.59;5032190;28;20719;-76
2023/03/28 08:26:20;;;;;;;7.30;2.70;;;;;;;4.78;71.30;99202.63;5032032;28;20230;-76
2023/03/28 08:28:47;;;;;;;4.57;2.27;;;;;;;4.70;73.57;99201.16;5032140;28;20679;-75
2023/03/28 08:31:15;;;;;;;4.43;2.50;;;;;;;4.81;74.01;99202.53;5031839;28;20217;-76
2023/03/28 08:33:43;;;;;;;5.50;2.60;;;;;;;4.89;72.67;99204.94;5032044;28;20220;-75
2023/03/28 08:36:13;;;;;;;5.07;2.20;;;;;;;4.97;73.55;99205.56;5031800;28;20212;-76
2023/03/28 08:38:40;;;;;;;11.10;2.63;;;;;;;5.02;69.31;99185.31;5031598;28;20683;-75
2023/03/28 08:41:17;;;;;;;7.63;2.57;;;;;;;5.15;68.07;99177.06;5031692;28;20215;-77
2023/03/28 08:44:01;;;;;;;3.63;2.37;;;;;;;5.32;67.47;99179.97;5031625;28;20200;-76
2023/03/28 08:46:29;;;;;;;5.57;2.33;;;;;;;5.19;67.76;99176.03;5031611;28;20227;-75
2023/03/28 08:48:59;;;;;;;4.63;2.23;;;;;;;5.25;68.48;99188.09;5031579;28;20684;-76
2023/03/28 08:51:34;;;;;;;8.53;2.20;;;;;;;5.33;67.42;99186.97;5031633;28;20212;-75
2023/03/28 08:54:10;;;;;;;4.90;1.73;;;;;;;5.42;65.31;99175.28;5031822;28;20559;-77
2023/03/28 08:56:42;;;;;;;2.83;1.90;;;;;;;5.56;65.38;99168.69;5031641;28;20223;-77
2023/03/28 08:59:14;;;;;;;4.70;1.80;;;;;;;5.63;64.46;99159.72;5031107;28;20234;-77
2023/03/28 09:01:41;;;;;;;4.77;2.10;;;;;;;5.67;62.26;99150.00;5031571;28;20208;-76
2023/03/28 09:04:08;;;;;;;2.57;1.50;;;;;;;5.79;61.79;99158.31;5031410;28;20205;-76
2023/03/28 09:06:40;;;;;;;10.47;2.13;;;;;;;5.60;60.80;99141.47;5031312;28;20256;-78
2023/03/28 09:09:27;;;;;;;3.67;2.40;;;;;;;5.49;60.32;99143.59;5031370;28;20602;-77
2023/03/28 09:12:04;;;;;;;4.23;2.10;;;;;;;5.60;61.57;99159.84;5031629;28;20252;-77
2023/03/28 09:14:50;;;;;;;4.43;1.90;;;;;;;5.69;62.01;99164.75;5031418;28;20214;-77
2023/03/28 09:17:23;;;;;;;5.23;2.30;;;;;;;5.89;63.43;99172.88;5031260;28;20207;-76
2023/03/28 09:20:10;;;;;;;3.73;2.07;;;;;;;6.04;60.27;99163.63;5033826;28;20288;-77
2023/03/28 09:22:47;;;;;;;5.33;1.70;;;;;;;6.06;59.03;99144.28;5042241;28;20214;-77
2023/03/28 09:25:29;;;;;;;3.93;1.90;;;;;;;5.99;59.25;99147.16;5042121;28;20216;-77
2023/03/28 09:28:04;;;;;;;5.27;1.70;;;;;;;6.15;59.62;99149.19;5037939;28;20592;-77
2023/03/28 09:30:33;;;;;;;4.07;1.80;;;;;;;6.31;58.03;99145.13;5034920;28;20212;-77
2023/03/28 09:33:04;;;;;;;3.13;1.33;;;;;;;6.41;54.93;99117.59;5035375;28;20208;-75
2023/03/28 09:35:31;;;;;;;3.27;1.70;;;;;;;6.56;54.24;99113.53;5035381;28;20216;-75
2023/03/28 09:38:03;;;;;;;2.27;1.50;;;;;;;6.51;54.19;99116.34;5035136;28;20239;-75
2023/03/28 09:40:32;;;;;;;6.03;1.73;;;;;;;6.54;56.54;99131.97;5034978;28;20252;-75
2023/03/28 09:43:08;;;;;;;2.90;1.90;;;;;;;6.75;55.99;99135.56;5034915;28;20209;-75
2023/03/28 09:45:53;;;;;;;3.60;1.67;;;;;;;6.94;55.48;99121.66;5035173;28;20215;-75
2023/03/28 09:48:22;;;;;;;2.90;1.50;;;;;;;6.99;54.63;99117.09;5034933;28;20244;-76
2023/03/28 09:50:50;;;;;;;3.53;1.70;;;;;;;7.09;56.44;99141.25;5034579;28;20209;-74
2023/03/28 09:53:23;;;;;;;4.57;2.15;;;;;;;6.94;55.52;99132.19;5033272;28;20492;-77
2023/03/28 09:55:53;;;;;;;2.23;1.40;;;;;;;6.86;54.89;99118.50;5032682;28;20746;-76
2023/03/28 09:58:20;;;;;;;4.03;1.63;;;;;;;6.96;55.18;99125.09;5034038;28;20584;-75
2023/03/28 10:00:49;;;;;;;9.10;2.13;;;;;;;7.18;55.67;99132.97;5033842;28;20212;-75
2023/03/28 10:03:21;;;;;;;2.23;1.50;;;;;;;7.46;55.02;99118.66;5033604;28;20215;-75
2023/03/28 10:05:49;;;;;;;1.40;1.10;;;;;;;7.77;55.75;99124.38;5025263;28;20298;-76
2023/03/28 10:08:26;;;;;;;3.37;1.80;;;;;;;8.12;54.51;99107.88;5033728;28;20244;-77
2023/03/28 10:11:00;;;;;;;3.03;1.50;;;;;;;8.31;53.17;99098.28;5033779;28;20213;-76
2023/03/28 10:13:36;;;;;;;2.20;1.33;;;;;;;8.48;54.22;99101.00;5033591;28;20715;-75
2023/03/28 10:16:04;;;;;;;3.27;1.40;;;;;;;8.57;55.26;99111.16;5033809;28;20211;-75
2023/03/28 10:18:32;;;;;;;1.43;1.10;;;;;;;8.36;52.59;99096.28;5033481;28;20726;-76
2023/03/28 10:21:06;;;;;;;3.30;1.33;;;;;;;8.18;50.46;99060.22;5033259;28;20750;-75
2023/03/28 10:23:35;;;;;;;3.70;1.50;;;;;;;8.19;49.16;99051.38;5033702;28;20300;-76
2023/03/28 10:26:03;;;;;;;1.97;1.27;;;;;;;7.97;49.08;99045.41;5033510;28;20213;-75
2023/03/28 10:28:32;;;;;;;2.67;1.47;;;;;;;7.70;48.93;99030.78;5033483;28;20704;-76
2023/03/28 10:31:01;;;;;;;2.23;1.30;;;;;;;7.94;48.70;99029.72;5033009;28;20682;-76
2023/03/28 10:33:32;;;;;;;1.87;1.50;;;;;;;7.58;49.68;99041.84;5033273;28;20675;-76
2023/03/28 10:36:02;;;;;;;4.73;1.60;;;;;;;7.60;50.71;99051.38;5033321;28;20305;-76
2023/03/28 10:38:37;;;;;;;4.50;1.77;;;;;;;7.55;51.05;99056.00;5032890;28;20251;-76
2023/03/28 10:41:07;;;;;;;2.60;1.67;;;;;;;7.56;53.23;99080.53;5033780;28;20679;-76
2023/03/28 10:43:36;;;;;;;3.00;1.40;;;;;;;7.55;53.68;99091.97;5033487;28;20205;-74
2023/03/28 10:46:07;;;;;;;4.50;2.10;;;;;;;7.50;51.52;99055.34;5033938;28;20213;-76
2023/03/28 10:48:36;;;;;;;4.50;1.73;;;;;;;7.49;49.63;99042.25;5033613;28;20923;-77
2023/03/28 10:51:09;;;;;;;2.93;1.63;;;;;;;7.39;49.08;99028.66;5034198;28;20223;-78
2023/03/28 10:54:07;;;;;;;2.87;1.90;;;;;;;7.44;50.04;99049.47;5034082;28;20279;-78
2023/03/28 10:56:38;;;;;;;3.23;1.53;;;;;;;7.25;49.98;99056.44;5034069;28;20215;-78
2023/03/28 10:59:30;;;;;;;4.77;2.10;;;;;;;7.14;49.17;99039.41;5034030;28;20237;-78
2023/03/28 11:02:16;;;;;;;3.20;2.07;;;;;;;7.12;49.64;99039.47;5034004;28;20310;-77
2023/03/28 11:04:55;;;;;;;3.70;1.53;;;;;;;7.27;50.34;99046.69;5034537;28;20219;-77
2023/03/28 11:07:32;;;;;;;3.90;1.60;;;;;;;7.48;49.45;99038.75;5034089;28;20721;-77
2023/03/28 11:10:10;;;;;;;3.27;2.03;;;;;;;7.74;48.58;99035.00;5033184;28;20216;-76
2023/03/28 11:12:51;;;;;;;4.37;1.70;;;;;;;7.97;49.62;99035.69;5039099;28;20196;-76
2023/03/28 11:15:28;;;;;;;3.60;1.73;;;;;;;8.10;48.79;99031.63;5053458;28;20205;-76
2023/03/28 11:18:08;;;;;;;2.67;1.90;;;;;;;8.21;48.16;99020.63;5053154;28;20222;-76
2023/03/28 11:20:46;;;;;;;3.73;1.47;;;;;;;8.23;49.02;99029.31;5052963;28;20706;-76
2023/03/28 11:23:42;;;;;;;3.83;1.77;;;;;;;8.09;48.28;99014.09;5052986;28;20675;-76
2023/03/28 11:26:13;;;;;;;2.53;1.47;;;;;;;8.12;47.29;98997.28;5053042;28;20219;-76
2023/03/28 11:28:58;;;;;;;3.73;1.53;;;;;;;8.10;46.95;98988.63;5052952;28;20239;-75
2023/03/28 11:31:31;;;;;;;3.30;1.90;;;;;;;8.19;48.68;99004.00;5052650;28;20216;-78
2023/03/28 11:34:02;;;;;;;2.77;2.10;;;;;;;8.43;47.87;99000.25;5052972;28;20204;-75
2023/03/28 11:36:34;;;;;;;3.87;1.53;;;;;;;8.63;48.38;99006.28;5053051;28;20214;-78
2023/03/28 11:39:10;;;;;;;2.43;2.00;;;;;;;8.84;47.24;98985.97;5052461;28;20234;-77
2023/03/28 11:41:41;;;;;;;2.73;1.90;;;;;;;9.06;47.13;98994.53;5052847;28;20219;-77
2023/03/28 11:44:17;;;;;;;2.07;1.90;;;;;;;9.22;48.13;98998.09;5052574;28;20219;-76
2023/03/28 11:46:49;;;;;;;3.80;2.00;;;;;;;9.08;48.06;98992.66;5052756;28;20262;-75
2023/03/28 11:49:20;;;;;;;3.27;1.47;;;;;;;9.08;49.87;99009.34;5051376;28;20233;-75